Columbia Metropolitan Airport
KCAE : now visible

Airfield :











YOU CAN JOIN US ON...

 
LOGIN :

Register | Disclaimer

   EN    FR    IT 

 









Legend :    VFR   Marginal VFR   IFR   Intensive IFR   Very Intensive IFR
Visi :
Ceiling :
>= 8 km
>= 3000ft
5 to 8 km
1000 to 3000 ft
1500m to 5 km
500 to 1000 ft
800 to 1500m
200 to 500 ft
< 800m
< 200 ft
Symbols :   Thunderstorms  Fog  Heavy snow  Heavy precipitations  Wind > 20 kt






- Airport Elevation : 236 ft
- IATA code : CAE


KCAE - Columbia Metropolitan

CURRENT METAR :
  • 231356Z 20004KT 10SM FEW180 15/07 A3025 RMK AO2 SLP243 T01500072

EXPIRED METARs :
  • 231256Z 00000KT 10SM FEW180 11/08 A3025 RMK AO2 SLP242 T01060078
  • 231156Z 00000KT 10SM BCFG SCT180 07/06 A3024 RMK AO2 SLP241 T00670056 10067 20044 53021
  • 231056Z 00000KT 8SM BCFG FEW180 04/04 A3022 RMK AO2 SLP231 T00440039

TAF KCAE
Valid from the 23 at 14:00 until the 24 at 12:00 UTC


231415Z 2314/2412 17004KT P6SM FEW250
FM231700 21007KT P6SM SKC
FM232300 VRB04KT P6SM SKC
KZJX FIR / North America



MET'MAP, your aeronautical weather chart ! - Copyright ORBIFLY December 2007 - Disclaimer

ORBIFLY MET'MAP TEAM :

Programming & Development : Alexandra Zaïnal
Original concept : Baudouin d'Aumeries
Technical & hardware support : Manuel Goepfert
Assistance : Marc-Olivier Méhu




SOURCES & CREDITS :

   NOAA       Earth
Advisory